Time;durP1;ratioP1;P1;durP2;ratioP2;P2;SDS_P1;SDS_P2;PMS_P1;PMS_P2;Temp;Humidity;BMP_temperature;BMP_pressure;BME280_temperature;BME280_humidity;BME280_pressure;Samples;Min_cycle;Max_cycle;Signal;HPM_P1;HPM_P2
2023/08/12 00:00:55;;;;;;;0.68;0.68;;;18.40;99.90;;;;;;5113325;28;20090;-60
2023/08/12 00:03:21;;;;;;;0.57;0.57;;;18.50;99.90;;;;;;5112517;28;20051;-60
2023/08/12 00:05:47;;;;;;;0.52;0.52;;;18.40;99.90;;;;;;5112285;28;20116;-61
2023/08/12 00:08:12;;;;;;;0.10;0.10;;;18.50;99.90;;;;;;5112989;28;20385;-61
2023/08/12 00:10:38;;;;;;;0.20;0.20;;;18.30;99.90;;;;;;5112920;28;20047;-60
2023/08/12 00:13:04;;;;;;;0.20;0.20;;;18.40;99.90;;;;;;5113631;28;20058;-60
2023/08/12 00:15:29;;;;;;;2.08;1.25;;;18.80;99.90;;;;;;5112313;28;20096;-62
2023/08/12 00:17:55;;;;;;;0.57;0.57;;;18.30;99.90;;;;;;5112838;28;20248;-61
2023/08/12 00:20:21;;;;;;;0.70;0.70;;;18.20;99.90;;;;;;5113420;28;20087;-61
2023/08/12 00:22:46;;;;;;;0.30;0.30;;;18.60;99.90;;;;;;5113342;28;20043;-60
2023/08/12 00:25:12;;;;;;;0.38;0.38;;;18.60;99.90;;;;;;5112523;28;20487;-61
2023/08/12 00:27:38;;;;;;;0.32;0.32;;;18.50;99.90;;;;;;5112220;28;20067;-61
2023/08/12 00:30:05;;;;;;;0.75;0.63;;;18.20;99.90;;;;;;5113939;28;20048;-60
2023/08/12 00:32:30;;;;;;;0.45;0.45;;;18.30;99.90;;;;;;5112969;28;20044;-60
2023/08/12 00:34:56;;;;;;;0.30;0.30;;;18.70;99.90;;;;;;5113005;28;20077;-61
2023/08/12 00:37:22;;;;;;;0.30;0.30;;;18.90;99.90;;;;;;5094068;28;20571;-61
2023/08/12 00:39:48;;;;;;;0.25;0.20;;;18.70;99.90;;;;;;5111889;28;20049;-62
2023/08/12 00:42:13;;;;;;;3.85;3.60;;;18.90;99.90;;;;;;5113252;28;20131;-61
2023/08/12 00:44:39;;;;;;;0.15;0.15;;;18.40;99.90;;;;;;5111772;28;20047;-61
2023/08/12 00:47:05;;;;;;;0.40;0.40;;;18.30;99.90;;;;;;5112221;28;20056;-61
2023/08/12 00:49:32;;;;;;;0.30;0.30;;;18.50;99.90;;;;;;5113106;28;20047;-61
2023/08/12 00:51:59;;;;;;;0.60;0.52;;;18.60;99.90;;;;;;5112711;28;20040;-61
2023/08/12 00:54:26;;;;;;;0.32;0.32;;;18.30;99.90;;;;;;5112804;28;20139;-62
2023/08/12 00:56:53;;;;;;;0.20;0.20;;;18.60;99.90;;;;;;5111699;28;20051;-61
2023/08/12 00:59:20;;;;;;;0.57;0.57;;;18.50;99.90;;;;;;5112043;28;20523;-60
2023/08/12 01:01:46;;;;;;;0.75;0.43;;;18.40;99.90;;;;;;5112757;28;20085;-61
2023/08/12 01:04:13;;;;;;;0.95;0.73;;;18.50;99.90;;;;;;5112511;28;20093;-60
2023/08/12 01:06:39;;;;;;;1.23;0.85;;;18.10;99.90;;;;;;5111616;28;20055;-61
2023/08/12 01:09:05;;;;;;;1.40;0.52;;;18.10;99.90;;;;;;5111471;28;20463;-62
2023/08/12 01:11:54;;;;;;;0.17;0.17;;;18.00;99.90;;;;;;5112999;28;20057;-60
2023/08/12 01:14:27;;;;;;;0.43;0.43;;;18.20;99.90;;;;;;5112994;28;20053;-61
2023/08/12 01:17:00;;;;;;;0.73;0.50;;;18.10;99.90;;;;;;5111141;28;20568;-59
2023/08/12 01:19:36;;;;;;;0.60;0.60;;;17.80;99.90;;;;;;5111422;28;20582;-62
2023/08/12 01:22:03;;;;;;;0.55;0.55;;;18.10;99.90;;;;;;5111371;28;20039;-60
2023/08/12 01:24:51;;;;;;;0.30;0.30;;;18.00;99.90;;;;;;5111838;28;20797;-60
2023/08/12 01:27:16;;;;;;;0.38;0.38;;;18.00;99.90;;;;;;5093070;28;20594;-62
2023/08/12 01:29:47;;;;;;;0.30;0.30;;;18.50;99.90;;;;;;5111317;28;20047;-60
2023/08/12 01:32:25;;;;;;;0.20;0.20;;;18.20;99.90;;;;;;5110985;28;20475;-61
2023/08/12 01:35:00;;;;;;;0.40;0.40;;;18.40;99.90;;;;;;5111246;28;20512;-62
2023/08/12 01:37:31;;;;;;;0.77;0.70;;;18.40;99.90;;;;;;5111044;28;20082;-61
2023/08/12 01:40:00;;;;;;;0.63;0.63;;;18.10;99.90;;;;;;5111424;28;20043;-61
2023/08/12 01:42:27;;;;;;;0.38;0.38;;;18.50;99.90;;;;;;5111705;28;20175;-61
2023/08/12 01:44:53;;;;;;;0.30;0.30;;;18.70;99.90;;;;;;5112171;28;20045;-62
2023/08/12 01:47:19;;;;;;;0.17;0.17;;;18.70;99.90;;;;;;5110707;28;20100;-61
2023/08/12 01:49:45;;;;;;;0.10;0.10;;;18.20;99.90;;;;;;5111013;28;20056;-61
2023/08/12 01:52:10;;;;;;;0.30;0.30;;;18.50;99.90;;;;;;5110767;28;20043;-62
2023/08/12 01:54:36;;;;;;;0.70;0.68;;;18.40;99.90;;;;;;5111207;28;20484;-61
2023/08/12 01:57:05;;;;;;;0.40;0.40;;;18.10;99.90;;;;;;5110621;28;20395;-61
2023/08/12 01:59:32;;;;;;;0.17;0.17;;;18.30;99.90;;;;;;5110769;28;20089;-61
2023/08/12 02:01:57;;;;;;;0.20;0.20;;;18.00;99.90;;;;;;5110663;28;20068;-60
2023/08/12 02:04:23;;;;;;;0.20;0.20;;;17.70;99.90;;;;;;5111136;28;20171;-60
2023/08/12 02:06:49;;;;;;;0.32;0.32;;;18.10;99.90;;;;;;5111076;28;20445;-61
2023/08/12 02:09:15;;;;;;;0.30;0.30;;;18.30;99.90;;;;;;5110746;28;20055;-60
2023/08/12 02:11:41;;;;;;;0.10;0.10;;;17.60;99.90;;;;;;5093023;28;20051;-62
2023/08/12 02:14:06;;;;;;;0.30;0.30;;;18.20;99.90;;;;;;5111356;28;20479;-61
2023/08/12 02:16:32;;;;;;;0.65;0.47;;;18.00;99.90;;;;;;5110785;28;20046;-60
2023/08/12 02:18:58;;;;;;;0.30;0.30;;;18.00;99.90;;;;;;5110326;28;20052;-61
2023/08/12 02:21:23;;;;;;;1.85;1.08;;;18.30;99.90;;;;;;5110766;28;20069;-62
2023/08/12 02:23:49;;;;;;;0.45;0.45;;;18.00;99.90;;;;;;5109901;28;20044;-61
2023/08/12 02:26:16;;;;;;;0.10;0.10;;;18.20;99.90;;;;;;5110926;28;20047;-60
2023/08/12 02:28:41;;;;;;;0.43;0.30;;;18.00;99.90;;;;;;5111019;28;20154;-62
2023/08/12 02:31:07;;;;;;;0.10;0.10;;;17.90;99.90;;;;;;5111038;28;20209;-60
2023/08/12 02:33:32;;;;;;;0.30;0.20;;;17.70;99.90;;;;;;5114198;28;20059;-61
2023/08/12 02:35:58;;;;;;;0.35;0.35;;;18.20;99.90;;;;;;5114605;28;20050;-61
2023/08/12 02:38:24;;;;;;;0.30;0.30;;;18.60;99.90;;;;;;5114933;28;20054;-62
2023/08/12 02:40:50;;;;;;;0.20;0.20;;;18.40;99.90;;;;;;5115315;28;20130;-60
2023/08/12 02:43:17;;;;;;;0.10;0.10;;;18.10;99.90;;;;;;5115049;28;20671;-61
2023/08/12 02:45:43;;;;;;;0.35;0.35;;;18.70;99.90;;;;;;5114160;28;20162;-61
2023/08/12 02:48:12;;;;;;;0.82;0.82;;;18.60;99.90;;;;;;5115712;28;20395;-60
2023/08/12 02:50:38;;;;;;;0.00;0.00;;;18.10;99.90;;;;;;5114562;28;20467;-62
2023/08/12 02:53:05;;;;;;;0.30;0.30;;;18.30;99.90;;;;;;5114125;28;20131;-63
2023/08/12 02:55:34;;;;;;;6.43;0.80;;;18.20;99.90;;;;;;5115008;28;20083;-60
2023/08/12 02:58:03;;;;;;;0.28;0.28;;;17.40;99.90;;;;;;5113918;28;20055;-62
2023/08/12 03:00:29;;;;;;;0.25;0.25;;;18.40;99.90;;;;;;5114004;28;20044;-61
2023/08/12 03:02:54;;;;;;;1.02;0.25;;;18.60;99.90;;;;;;5113759;28;20096;-60
2023/08/12 03:05:21;;;;;;;0.20;0.20;;;18.10;99.90;;;;;;5114499;28;20051;-60
2023/08/12 03:07:46;;;;;;;0.70;0.52;;;18.30;99.90;;;;;;5115050;28;20059;-62
2023/08/12 03:10:13;;;;;;;0.15;0.15;;;17.90;99.90;;;;;;5114883;28;20051;-61
2023/08/12 03:12:38;;;;;;;0.30;0.30;;;18.30;99.90;;;;;;5114554;28;20051;-61
2023/08/12 03:15:06;;;;;;;0.05;0.05;;;18.50;99.90;;;;;;5113707;28;20042;-61
2023/08/12 03:17:32;;;;;;;0.43;0.40;;;18.60;99.90;;;;;;5113907;28;20139;-63
2023/08/12 03:20:00;;;;;;;0.13;0.13;;;18.20;99.90;;;;;;5113854;28;20127;-62
2023/08/12 03:22:29;;;;;;;0.55;0.55;;;18.00;99.90;;;;;;5096398;28;20039;-61
2023/08/12 03:24:55;;;;;;;0.47;0.47;;;18.20;99.90;;;;;;5113331;28;20112;-60
2023/08/12 03:27:21;;;;;;;0.22;0.22;;;18.40;99.90;;;;;;5113510;28;20651;-60
2023/08/12 03:29:46;;;;;;;1.10;0.68;;;18.00;99.90;;;;;;5114631;28;20127;-60
2023/08/12 03:32:12;;;;;;;0.57;0.50;;;18.50;99.90;;;;;;5114120;28;20078;-61
2023/08/12 03:34:38;;;;;;;1.08;0.47;;;18.10;99.90;;;;;;5114616;28;20554;-61
2023/08/12 03:37:04;;;;;;;0.43;0.35;;;18.50;99.90;;;;;;5113477;28;20055;-61
2023/08/12 03:39:30;;;;;;;0.30;0.30;;;18.40;99.90;;;;;;5113863;28;20124;-60
2023/08/12 03:41:55;;;;;;;0.00;0.00;;;18.50;99.90;;;;;;5113155;28;20377;-61
2023/08/12 03:44:21;;;;;;;0.40;0.40;;;18.50;99.90;;;;;;5112037;28;20039;-60
2023/08/12 03:46:47;;;;;;;0.52;0.50;;;18.40;99.90;;;;;;5113000;28;20130;-61
2023/08/12 03:49:12;;;;;;;0.10;0.10;;;18.80;99.90;;;;;;5113296;28;20047;-60
2023/08/12 03:51:38;;;;;;;0.10;0.10;;;18.40;99.90;;;;;;5114704;28;20054;-61
2023/08/12 03:54:04;;;;;;;0.25;0.25;;;18.10;99.90;;;;;;5095945;28;20119;-60
2023/08/12 03:56:30;;;;;;;0.10;0.10;;;18.20;99.90;;;;;;5114002;28;20057;-61
2023/08/12 03:58:55;;;;;;;0.30;0.20;;;18.10;99.90;;;;;;5113371;28;20116;-62
2023/08/12 04:01:21;;;;;;;0.20;0.20;;;18.40;99.90;;;;;;5112790;28;20083;-60
2023/08/12 04:03:47;;;;;;;0.20;0.20;;;17.90;99.90;;;;;;5113143;28;20392;-60
2023/08/12 04:06:13;;;;;;;0.20;0.20;;;17.50;99.90;;;;;;5094140;28;20051;-60
2023/08/12 04:08:38;;;;;;;0.10;0.10;;;17.80;99.90;;;;;;5114213;28;20081;-60
2023/08/12 04:11:04;;;;;;;0.55;0.30;;;17.80;99.90;;;;;;5113607;28;20036;-61
2023/08/12 04:13:30;;;;;;;0.25;0.25;;;18.40;99.90;;;;;;5113384;28;20047;-60
2023/08/12 04:15:56;;;;;;;0.22;0.22;;;17.70;99.90;;;;;;5112941;28;20052;-61
2023/08/12 04:18:22;;;;;;;0.22;0.22;;;17.70;99.90;;;;;;5112789;28;20035;-60
2023/08/12 04:20:52;;;;;;;0.20;0.20;;;17.90;99.90;;;;;;5112600;28;20052;-61
2023/08/12 04:23:17;;;;;;;0.20;0.20;;;18.10;99.90;;;;;;5112448;28;20072;-61
2023/08/12 04:25:47;;;;;;;0.20;0.20;;;18.30;99.90;;;;;;5113284;28;20047;-61
2023/08/12 04:28:13;;;;;;;0.22;0.22;;;18.00;99.90;;;;;;5113332;28;20074;-61
2023/08/12 04:30:47;;;;;;;0.10;0.10;;;17.60;99.90;;;;;;5112690;28;20074;-60
2023/08/12 04:33:13;;;;;;;0.22;0.22;;;17.80;99.90;;;;;;5112314;28;20035;-61
2023/08/12 04:35:40;;;;;;;0.57;0.25;;;18.40;99.90;;;;;;5113477;28;20043;-61
2023/08/12 04:38:05;;;;;;;0.30;0.30;;;18.30;99.90;;;;;;5112197;28;20122;-61
2023/08/12 04:40:32;;;;;;;0.80;0.30;;;18.30;99.90;;;;;;5112279;28;20622;-60
2023/08/12 04:42:58;;;;;;;0.55;0.40;;;18.20;99.90;;;;;;5112241;28;20058;-61
2023/08/12 04:45:24;;;;;;;0.60;0.50;;;18.30;99.90;;;;;;5112813;28;20051;-60
2023/08/12 04:47:50;;;;;;;1.88;0.95;;;18.30;99.90;;;;;;5112345;28;20047;-60
2023/08/12 04:50:16;;;;;;;2.15;0.28;;;17.70;99.90;;;;;;5111859;28;20101;-61
2023/08/12 04:52:41;;;;;;;0.15;0.15;;;18.40;99.90;;;;;;5113019;28;20160;-60
2023/08/12 04:55:07;;;;;;;0.30;0.22;;;18.00;99.90;;;;;;5112481;28;20066;-62
2023/08/12 04:57:33;;;;;;;0.47;0.47;;;18.60;99.90;;;;;;5112509;28;20150;-61
2023/08/12 04:59:59;;;;;;;0.25;0.25;;;17.80;99.90;;;;;;5111695;28;20531;-60
2023/08/12 05:02:24;;;;;;;0.20;0.20;;;18.30;99.90;;;;;;5111830;28;20082;-60
2023/08/12 05:04:51;;;;;;;1.45;0.70;;;18.90;99.90;;;;;;5112714;28;20082;-60
2023/08/12 05:07:17;;;;;;;0.25;0.25;;;18.80;99.90;;;;;;5112348;28;20090;-62
2023/08/12 05:09:44;;;;;;;0.25;0.25;;;18.80;99.90;;;;;;5112098;28;20087;-62
2023/08/12 05:12:10;;;;;;;0.22;0.22;;;18.80;99.90;;;;;;5111292;28;20048;-59
2023/08/12 05:14:37;;;;;;;0.20;0.20;;;18.40;99.90;;;;;;5112047;28;20359;-60
2023/08/12 05:17:02;;;;;;;0.50;0.50;;;18.60;99.90;;;;;;5111504;28;20046;-60
2023/08/12 05:19:28;;;;;;;0.90;0.60;;;18.80;99.90;;;;;;5111364;28;20052;-63
2023/08/12 05:21:54;;;;;;;0.43;0.43;;;18.90;99.90;;;;;;5094361;28;20130;-60
2023/08/12 05:24:19;;;;;;;0.70;0.60;;;19.00;99.90;;;;;;5093717;28;20429;-60
2023/08/12 05:26:45;;;;;;;0.20;0.20;;;18.50;99.90;;;;;;5093823;28;20054;-60
2023/08/12 05:29:11;;;;;;;0.65;0.55;;;18.80;99.90;;;;;;5111435;28;20051;-60
2023/08/12 05:31:36;;;;;;;0.13;0.13;;;19.10;99.90;;;;;;5111221;28;20148;-60
2023/08/12 05:34:02;;;;;;;0.47;0.47;;;18.80;99.90;;;;;;5111875;28;20043;-60
2023/08/12 05:36:28;;;;;;;0.38;0.22;;;19.00;99.90;;;;;;5111857;28;20108;-61
2023/08/12 05:38:54;;;;;;;0.20;0.20;;;19.20;99.90;;;;;;5111064;28;20048;-60
2023/08/12 05:41:20;;;;;;;0.30;0.30;;;19.20;99.90;;;;;;5110781;28;20112;-60
2023/08/12 05:43:47;;;;;;;0.38;0.30;;;19.40;99.90;;;;;;5111036;28;20051;-61
2023/08/12 05:46:12;;;;;;;0.52;0.43;;;19.30;99.90;;;;;;5111603;28;20042;-61
2023/08/12 05:48:38;;;;;;;0.38;0.38;;;19.40;99.90;;;;;;5111236;28;20095;-60
2023/08/12 05:51:04;;;;;;;0.38;0.38;;;20.20;99.90;;;;;;5092407;28;20044;-61
2023/08/12 05:53:29;;;;;;;0.40;0.40;;;19.70;99.90;;;;;;5110366;28;20044;-62
2023/08/12 05:55:55;;;;;;;1.90;0.73;;;19.40;99.90;;;;;;5100542;28;20133;-62
2023/08/12 05:58:20;;;;;;;1.00;0.73;;;19.60;99.90;;;;;;5109598;28;20043;-61
2023/08/12 06:00:46;;;;;;;0.65;0.50;;;19.70;99.90;;;;;;5110416;28;20479;-60
2023/08/12 06:03:12;;;;;;;0.65;0.65;;;19.10;99.90;;;;;;5110849;28;20158;-60
2023/08/12 06:05:39;;;;;;;0.98;0.50;;;19.70;99.90;;;;;;5110304;28;20043;-61
2023/08/12 06:08:05;;;;;;;1.95;0.30;;;19.60;99.90;;;;;;5109243;28;20446;-60
2023/08/12 06:10:31;;;;;;;1.10;0.90;;;19.40;99.90;;;;;;5109842;28;20059;-60
2023/08/12 06:12:56;;;;;;;0.40;0.40;;;19.50;99.90;;;;;;5109365;28;20487;-60
2023/08/12 06:15:22;;;;;;;0.30;0.30;;;19.40;99.90;;;;;;5110211;28;20069;-60
2023/08/12 06:17:48;;;;;;;0.40;0.40;;;19.40;99.90;;;;;;5110464;28;20086;-60
2023/08/12 06:20:13;;;;;;;0.50;0.50;;;19.60;99.90;;;;;;5110605;28;20063;-61
2023/08/12 06:22:39;;;;;;;0.32;0.32;;;19.80;99.90;;;;;;5110232;28;20054;-60
2023/08/12 06:25:05;;;;;;;1.30;1.27;;;19.80;99.90;;;;;;5110369;28;20482;-60
2023/08/12 06:27:31;;;;;;;0.20;0.20;;;19.60;99.90;;;;;;5109615;28;20124;-61
2023/08/12 06:29:56;;;;;;;0.52;0.52;;;19.30;99.90;;;;;;5109715;28;20079;-62
2023/08/12 06:32:22;;;;;;;0.30;0.30;;;20.10;99.90;;;;;;5110568;28;20044;-61
2023/08/12 06:34:48;;;;;;;0.40;0.40;;;19.90;99.90;;;;;;5110493;28;20036;-60
2023/08/12 06:37:13;;;;;;;0.35;0.35;;;19.50;99.90;;;;;;5109441;28;20082;-61
2023/08/12 06:39:39;;;;;;;0.32;0.20;;;19.90;99.90;;;;;;5108640;28;20043;-61
2023/08/12 06:42:05;;;;;;;0.10;0.10;;;20.00;99.90;;;;;;5107987;28;20087;-61
2023/08/12 06:44:30;;;;;;;0.43;0.43;;;19.80;99.90;;;;;;5110861;28;20082;-60
2023/08/12 06:46:56;;;;;;;0.38;0.38;;;19.70;99.90;;;;;;5110523;28;20494;-60
2023/08/12 06:49:22;;;;;;;0.30;0.30;;;19.30;99.90;;;;;;5111006;28;20712;-61
2023/08/12 06:51:47;;;;;;;0.28;0.28;;;20.20;99.90;;;;;;5110588;28;20093;-60
2023/08/12 06:54:13;;;;;;;1.15;0.63;;;19.90;99.90;;;;;;5109841;28;20039;-62
2023/08/12 06:56:38;;;;;;;0.30;0.30;;;19.90;99.90;;;;;;5110491;28;20052;-61
2023/08/12 06:59:04;;;;;;;0.22;0.22;;;19.90;99.90;;;;;;5110894;28;20051;-60
2023/08/12 07:01:30;;;;;;;0.22;0.22;;;19.80;99.90;;;;;;5092501;28;20036;-61
2023/08/12 07:03:56;;;;;;;0.40;0.25;;;19.70;99.90;;;;;;5109736;28;20048;-60
2023/08/12 07:06:22;;;;;;;0.43;0.30;;;19.90;99.90;;;;;;5109956;28;20043;-61
2023/08/12 07:08:48;;;;;;;0.10;0.10;;;20.10;99.90;;;;;;5111034;28;20056;-60
2023/08/12 07:11:13;;;;;;;7.53;1.60;;;19.70;99.90;;;;;;5110644;28;20070;-60
2023/08/12 07:13:39;;;;;;;0.20;0.20;;;19.30;99.90;;;;;;5109805;28;20039;-60
2023/08/12 07:16:05;;;;;;;0.88;0.43;;;19.80;99.90;;;;;;5109508;28;20737;-60
2023/08/12 07:18:31;;;;;;;0.40;0.30;;;20.00;99.90;;;;;;5112936;28;20047;-62
2023/08/12 07:20:58;;;;;;;0.40;0.40;;;19.80;99.90;;;;;;5114174;28;20054;-60
2023/08/12 07:23:24;;;;;;;0.20;0.20;;;20.40;99.90;;;;;;5105839;28;20403;-60
2023/08/12 07:25:49;;;;;;;0.63;0.63;;;20.10;99.90;;;;;;5112441;28;20297;-60
2023/08/12 07:28:15;;;;;;;1.05;0.95;;;19.80;99.90;;;;;;5112742;28;20594;-60
2023/08/12 07:30:41;;;;;;;0.25;0.20;;;20.10;99.90;;;;;;5112514;28;20483;-60
2023/08/12 07:33:07;;;;;;;0.95;0.95;;;19.70;99.90;;;;;;5112450;28;20043;-60
2023/08/12 07:35:33;;;;;;;0.38;0.38;;;20.20;99.90;;;;;;5114252;28;20090;-61
2023/08/12 07:37:59;;;;;;;1.40;1.30;;;20.50;99.90;;;;;;5113619;28;20048;-61
2023/08/12 07:40:26;;;;;;;2.63;1.17;;;19.70;99.90;;;;;;5114313;28;20090;-61
2023/08/12 07:42:51;;;;;;;2.53;0.70;;;20.40;99.90;;;;;;5112136;28;20047;-61
2023/08/12 07:45:17;;;;;;;0.43;0.35;;;20.70;99.90;;;;;;5112326;28;20191;-60
2023/08/12 07:47:43;;;;;;;0.55;0.40;;;20.30;99.90;;;;;;5112759;28;20047;-61
2023/08/12 07:50:09;;;;;;;0.35;0.35;;;20.20;99.90;;;;;;5093923;28;20098;-62
2023/08/12 07:52:35;;;;;;;0.30;0.30;;;20.40;99.90;;;;;;5112763;28;20138;-60
2023/08/12 07:55:01;;;;;;;0.40;0.40;;;20.70;99.90;;;;;;5112563;28;20143;-61
2023/08/12 07:57:27;;;;;;;0.82;0.82;;;20.50;99.90;;;;;;5113377;28;20043;-61
2023/08/12 07:59:52;;;;;;;0.30;0.30;;;20.20;99.90;;;;;;5113583;28;20051;-61
2023/08/12 08:02:18;;;;;;;1.63;0.43;;;20.80;99.90;;;;;;5095336;28;20052;-61
2023/08/12 08:04:44;;;;;;;0.30;0.30;;;20.80;99.90;;;;;;5113036;28;20094;-60
2023/08/12 08:07:11;;;;;;;1.00;0.85;;;20.50;99.90;;;;;;5112170;28;20058;-61
2023/08/12 08:09:36;;;;;;;0.50;0.50;;;20.70;99.90;;;;;;5112939;28;20122;-61
2023/08/12 08:12:02;;;;;;;0.35;0.35;;;20.90;99.90;;;;;;5113736;28;20126;-60
2023/08/12 08:14:28;;;;;;;0.68;0.38;;;20.60;99.90;;;;;;5113460;28;20127;-61
2023/08/12 08:16:54;;;;;;;0.75;0.60;;;20.20;99.90;;;;;;5112899;28;20130;-61
2023/08/12 08:19:19;;;;;;;0.25;0.25;;;20.30;99.90;;;;;;5112522;28;20054;-63
2023/08/12 08:21:45;;;;;;;0.30;0.30;;;20.20;99.90;;;;;;5112694;28;20059;-62
2023/08/12 08:24:12;;;;;;;0.60;0.60;;;20.30;99.90;;;;;;5112818;28;20134;-62
2023/08/12 08:26:41;;;;;;;0.35;0.35;;;20.90;99.90;;;;;;5113311;28;20055;-60
2023/08/12 08:29:06;;;;;;;1.25;1.15;;;20.70;99.90;;;;;;5112072;28;20108;-61
2023/08/12 08:31:32;;;;;;;0.35;0.28;;;20.50;99.90;;;;;;5112569;28;20130;-62
2023/08/12 08:33:58;;;;;;;0.65;0.38;;;20.10;99.90;;;;;;5111965;28;20044;-59
2023/08/12 08:36:24;;;;;;;1.08;0.85;;;19.80;99.90;;;;;;5112785;28;20040;-60
2023/08/12 08:38:50;;;;;;;0.75;0.75;;;20.30;99.90;;;;;;5112756;28;20051;-59
2023/08/12 08:41:16;;;;;;;0.43;0.43;;;20.30;99.90;;;;;;5112783;28;20052;-62
2023/08/12 08:43:46;;;;;;;0.55;0.55;;;19.90;99.90;;;;;;5111707;28;20134;-61
2023/08/12 08:46:15;;;;;;;0.40;0.40;;;19.70;99.90;;;;;;5113348;28;20275;-61
2023/08/12 08:48:42;;;;;;;0.80;0.80;;;20.40;99.90;;;;;;5113339;28;20077;-62
2023/08/12 08:51:10;;;;;;;0.40;0.40;;;19.40;99.90;;;;;;5112940;28;20047;-60
2023/08/12 08:53:39;;;;;;;0.63;0.63;;;20.30;99.90;;;;;;5112862;28;20086;-60
2023/08/12 08:56:11;;;;;;;0.52;0.52;;;19.70;99.90;;;;;;5111570;28;20058;-62
2023/08/12 08:58:39;;;;;;;0.85;0.63;;;20.20;99.90;;;;;;5111943;28;20065;-62
2023/08/12 09:01:06;;;;;;;0.52;0.47;;;20.10;99.90;;;;;;5112541;28;20046;-62
2023/08/12 09:03:35;;;;;;;0.70;0.70;;;20.50;99.90;;;;;;5112447;28;20075;-61
2023/08/12 09:06:01;;;;;;;0.70;0.35;;;20.60;99.90;;;;;;5111490;28;20050;-63
2023/08/12 09:08:29;;;;;;;0.55;0.55;;;19.60;99.90;;;;;;5110793;28;20526;-61
2023/08/12 09:10:56;;;;;;;0.10;0.10;;;20.10;99.90;;;;;;5112579;28;20084;-62
2023/08/12 09:13:22;;;;;;;0.20;0.20;;;20.10;99.90;;;;;;5112082;28;20126;-63
2023/08/12 09:15:47;;;;;;;0.55;0.55;;;20.50;99.90;;;;;;5111631;28;20185;-62
2023/08/12 09:18:13;;;;;;;1.83;0.75;;;20.10;99.90;;;;;;5111346;28;20096;-62
2023/08/12 09:20:39;;;;;;;0.98;0.52;;;20.10;99.90;;;;;;5112072;28;20043;-62
2023/08/12 09:23:04;;;;;;;0.75;0.70;;;20.60;99.90;;;;;;5111843;28;20063;-61
2023/08/12 09:25:30;;;;;;;0.40;0.40;;;17.90;99.90;;;;;;5112129;28;20039;-64
2023/08/12 09:27:59;;;;;;;0.17;0.17;;;20.80;99.90;;;;;;5111462;28;20051;-61
2023/08/12 09:30:27;;;;;;;0.20;0.20;;;20.50;99.90;;;;;;5105209;28;20064;-65
2023/08/12 09:33:11;;;;;;;1.10;0.52;;;20.50;99.90;;;;;;5112062;28;20047;-66
2023/08/12 09:35:39;;;;;;;0.20;0.20;;;20.30;99.90;;;;;;5112170;28;20051;-64
2023/08/12 09:38:06;;;;;;;0.40;0.40;;;19.90;99.90;;;;;;5111788;28;20047;-64
2023/08/12 09:40:34;;;;;;;0.47;0.40;;;20.60;99.90;;;;;;5111535;28;20090;-62
2023/08/12 09:43:00;;;;;;;0.52;0.52;;;19.50;99.90;;;;;;5110739;28;20150;-62
2023/08/12 09:45:27;;;;;;;1.02;0.60;;;20.30;99.90;;;;;;5089023;28;20059;-63
2023/08/12 09:47:54;;;;;;;0.73;0.73;;;19.50;99.90;;;;;;5072780;28;20139;-63
2023/08/12 09:50:25;;;;;;;0.52;0.52;;;20.00;99.90;;;;;;5090404;28;20048;-65
2023/08/12 09:52:51;;;;;;;0.40;0.40;;;20.30;99.90;;;;;;5090452;28;20098;-66
2023/08/12 09:55:18;;;;;;;0.98;0.90;;;19.60;99.90;;;;;;5091022;28;20047;-64
2023/08/12 09:57:48;;;;;;;1.17;0.55;;;19.30;99.90;;;;;;5091057;28;20052;-62
2023/08/12 10:00:18;;;;;;;0.40;0.40;;;20.50;99.90;;;;;;5091395;28;20127;-64
2023/08/12 10:02:49;;;;;;;0.22;0.22;;;19.80;99.90;;;;;;5090854;28;20056;-65
2023/08/12 10:05:28;;;;;;;1.73;1.02;;;20.50;99.90;;;;;;5090162;28;20173;-62
2023/08/12 10:07:54;;;;;;;0.45;0.25;;;19.40;99.90;;;;;;5091065;28;20494;-62
2023/08/12 10:10:22;;;;;;;1.13;0.93;;;20.40;99.90;;;;;;5091114;28;20056;-62
2023/08/12 10:12:49;;;;;;;1.27;0.55;;;20.50;99.90;;;;;;5090186;28;20059;-62
2023/08/12 10:15:15;;;;;;;1.50;0.60;;;19.40;99.90;;;;;;5090134;28;20113;-62
2023/08/12 10:17:41;;;;;;;0.20;0.20;;;20.70;99.90;;;;;;5090741;28;20040;-61
2023/08/12 10:20:08;;;;;;;0.88;0.88;;;21.30;99.90;;;;;;5090625;28;20480;-62
2023/08/12 10:22:36;;;;;;;1.08;0.70;;;21.30;99.90;;;;;;5090392;28;20040;-62
2023/08/12 10:25:03;;;;;;;1.45;1.27;;;20.50;99.90;;;;;;5089932;28;20036;-62
2023/08/12 10:27:29;;;;;;;2.05;1.02;;;21.00;99.90;;;;;;5072766;28;20063;-63
2023/08/12 10:29:58;;;;;;;0.47;0.47;;;20.50;99.90;;;;;;5090699;28;20043;-64
2023/08/12 10:32:25;;;;;;;0.50;0.50;;;21.50;99.90;;;;;;5090771;28;20127;-63
2023/08/12 10:34:57;;;;;;;0.80;0.80;;;20.40;99.90;;;;;;5089886;28;20044;-62
2023/08/12 10:37:24;;;;;;;1.00;0.98;;;20.40;99.90;;;;;;5090065;28;20044;-62
2023/08/12 10:39:53;;;;;;;0.70;0.70;;;20.60;99.90;;;;;;5090823;28;20062;-65
2023/08/12 10:42:44;;;;;;;0.70;0.70;;;21.50;99.90;;;;;;5090680;28;20084;-61
2023/08/12 10:45:11;;;;;;;1.27;0.70;;;21.60;99.90;;;;;;5089874;28;20366;-63
2023/08/12 10:47:41;;;;;;;0.40;0.40;;;21.30;99.90;;;;;;5090387;28;20098;-62
2023/08/12 10:50:21;;;;;;;0.47;0.47;;;22.00;99.90;;;;;;5106506;28;20059;-62
2023/08/12 10:52:47;;;;;;;2.28;0.63;;;20.70;99.90;;;;;;5111874;28;20066;-64
2023/08/12 10:55:21;;;;;;;0.85;0.68;;;21.20;99.90;;;;;;5114808;28;20083;-61
2023/08/12 10:57:47;;;;;;;1.45;0.95;;;20.90;99.90;;;;;;5114993;28;20059;-63
2023/08/12 11:00:15;;;;;;;0.60;0.35;;;21.10;99.90;;;;;;5096061;28;20130;-63
2023/08/12 11:02:45;;;;;;;1.20;1.10;;;21.30;99.90;;;;;;5114394;28;20055;-62
2023/08/12 11:05:12;;;;;;;0.10;0.10;;;21.00;99.90;;;;;;5096376;28;20385;-64
2023/08/12 11:07:49;;;;;;;0.60;0.60;;;21.70;99.90;;;;;;5114890;28;20116;-62
2023/08/12 11:10:15;;;;;;;0.30;0.30;;;21.50;99.90;;;;;;5114867;28;20058;-61
2023/08/12 11:12:55;;;;;;;0.20;0.20;;;20.60;99.90;;;;;;5114687;28;20051;-64
2023/08/12 11:15:41;;;;;;;0.47;0.47;;;19.90;99.90;;;;;;5114721;28;20142;-62
2023/08/12 11:18:18;;;;;;;0.63;0.35;;;19.10;99.90;;;;;;5114436;28;20127;-61
2023/08/12 11:20:44;;;;;;;0.08;0.08;;;19.50;99.90;;;;;;5113529;28;20510;-63
2023/08/12 11:23:10;;;;;;;0.45;0.45;;;19.20;99.90;;;;;;5114072;28;20039;-62
2023/08/12 11:25:38;;;;;;;1.10;0.85;;;18.70;99.90;;;;;;5114030;28;20032;-62
2023/08/12 11:28:05;;;;;;;0.43;0.40;;;18.80;99.90;;;;;;5114276;28;20051;-62
2023/08/12 11:30:31;;;;;;;0.20;0.20;;;18.60;99.90;;;;;;5114295;28;20048;-62
2023/08/12 11:32:58;;;;;;;0.32;0.32;;;18.50;99.90;;;;;;5114298;28;20120;-62
2023/08/12 11:35:24;;;;;;;0.32;0.30;;;18.30;99.90;;;;;;5113439;28;20384;-63
2023/08/12 11:37:58;;;;;;;0.65;0.22;;;18.50;99.90;;;;;;5113936;28;20518;-64
2023/08/12 11:40:26;;;;;;;0.30;0.30;;;18.70;99.90;;;;;;5114196;28;20051;-62
2023/08/12 11:42:53;;;;;;;0.28;0.28;;;18.30;99.90;;;;;;5113588;28;20777;-63
2023/08/12 11:45:21;;;;;;;0.20;0.20;;;18.70;99.90;;;;;;5113836;28;20100;-62
2023/08/12 11:47:52;;;;;;;1.92;0.45;;;18.90;99.90;;;;;;5113605;28;20492;-63
2023/08/12 11:50:18;;;;;;;0.30;0.30;;;18.40;99.90;;;;;;5113309;28;20057;-62
2023/08/12 11:52:44;;;;;;;3.42;1.00;;;18.50;99.90;;;;;;5113808;28;20081;-62
2023/08/12 11:55:10;;;;;;;1.55;1.00;;;18.40;99.90;;;;;;5113852;28;20044;-61
2023/08/12 11:57:36;;;;;;;0.00;0.00;;;18.70;99.90;;;;;;5113498;28;20048;-62
2023/08/12 12:00:13;;;;;;;0.60;0.32;;;18.40;99.90;;;;;;5112953;28;20074;-63
2023/08/12 12:02:54;;;;;;;0.20;0.20;;;18.10;99.90;;;;;;5113911;28;20126;-62
2023/08/12 12:05:23;;;;;;;0.47;0.47;;;18.30;99.90;;;;;;5113071;28;20051;-61
2023/08/12 12:07:49;;;;;;;0.13;0.13;;;18.30;99.90;;;;;;5113641;28;20067;-64
2023/08/12 12:10:20;;;;;;;0.80;0.80;;;18.40;99.90;;;;;;5113536;28;20047;-62
2023/08/12 12:12:45;;;;;;;1.33;1.23;;;18.60;99.90;;;;;;5113657;28;20044;-61
2023/08/12 12:15:14;;;;;;;0.47;0.43;;;18.30;99.90;;;;;;5112881;28;20372;-61
2023/08/12 12:17:40;;;;;;;0.20;0.20;;;18.60;99.90;;;;;;5113356;28;20381;-61
2023/08/12 12:20:11;;;;;;;0.20;0.20;;;18.40;99.90;;;;;;5113415;28;20072;-64
2023/08/12 12:22:37;;;;;;;0.10;0.10;;;18.50;99.90;;;;;;5112591;28;20043;-63
2023/08/12 12:25:08;;;;;;;0.15;0.15;;;18.80;99.90;;;;;;5112571;28;20036;-61
2023/08/12 12:27:34;;;;;;;0.10;0.10;;;18.90;99.90;;;;;;5113293;28;20043;-62
2023/08/12 12:30:00;;;;;;;0.43;0.35;;;19.00;99.90;;;;;;5095068;28;20060;-62
2023/08/12 12:32:26;;;;;;;0.22;0.22;;;18.90;99.90;;;;;;5112991;28;20054;-61
2023/08/12 12:34:52;;;;;;;0.00;0.00;;;19.20;99.90;;;;;;5112593;28;20059;-62
2023/08/12 12:37:18;;;;;;;0.70;0.70;;;19.20;99.90;;;;;;5112261;28;20047;-62
2023/08/12 12:39:45;;;;;;;0.32;0.32;;;19.00;99.90;;;;;;5112481;28;20055;-62
2023/08/12 12:42:11;;;;;;;0.00;0.00;;;19.30;99.90;;;;;;5112975;28;20100;-62
2023/08/12 12:44:37;;;;;;;0.03;0.03;;;19.20;99.90;;;;;;5112864;28;20433;-61
2023/08/12 12:47:03;;;;;;;0.55;0.55;;;19.10;99.90;;;;;;5112672;28;20048;-61